Kodiak Airport
PADQ : now visible

Aeroporto :











RITROVATECI SU...

 
LOGIN :

Iscrizione | Disclaimer

   EN    FR    IT 

 









Sommario :    VFR   VFR Marginale   IFR   IFR Intensivo   IFR Molto Intensivo
Visibilità : 
Base nubi : 
>= 8 km
>= 3000ft
5 / 8 km
1000 / 3000 ft
1500m / 5 km
500 / 1000 ft
800 / 1500m
200 / 500 ft
< 800m
< 200 ft
Simboli :   Temporali  Nebbia  Neve Forte  Precipitazioni Forti  Vento > 20 kt






- Altitudine del aeroporto : 78 ft
- Codice IATA : ADQ


PADQ - Kodiak

ULTIMO METAR :
  • 280153Z 07005KT 10SM OVC110 09/03 A2942

TAF PADQ
Valido dal 28 a 00 ore il 29 a 00 ore UTC


272326Z 2800/2824 VRB06KT P6SM OVC200
FM280600 08010KT P6SM -RA SCT025 OVC040
FM280900 04015G20KT 5SM -RA SCT015 OVC025
FM281600 02016G24KT P6SM SCT025 BKN045
FM281900 35012G20KT P6SM BKN050
FIR PAZA / America del Nord



MetMap, La meteo Aeronautica in un colpo d'occhio ! - Copyright ORBIFLY Dicembre 2007 - Disclaimer

ORBIFLY MET'MAP TEAM :

Programmazione e sviluppo : Alexandra Zaïnal
Concezione : Baudouin d'Aumeries
Aiuto per la programmazione : Marc-Olivier Méhu
Supporto tecnico e logistico : Manuel Goepfert
Aiuto per la traduzione : Arnaldo La Scala

Contatto : metmap@orbifly.com




FONTI E CREDITI :

   NOAA       Earth
Advisory